Data for 08/28/2005

Time Sea-Level Adjusted Pressure Absolute Pressure Temperature Relative Humidity Dew Point   
(mb) (inHg) (mb) (inHg) (C) (F) (%) (C) (F)
00:05 1019 30.09 848 25.04 20.2 68.3 23 -1.3 29.7
00:10 1019 30.09 848 25.04 20.3 68.5 23 -1.5 29.3
00:15 1019 30.09 849 25.07 20.4 68.6 23 -1.5 29.3
00:20 1019 30.09 849 25.07 20.4 68.7 22 -1.8 28.8
00:25 1019 30.09 848 25.04 20.5 68.9 22 -1.7 28.9
00:30 1019 30.09 849 25.07 20.6 69 22 -1.8 28.7
00:35 1019 30.09 849 25.07 20.5 68.8 22 -1.8 28.8
00:40 1019 30.09 849 25.07 20.5 68.8 22 -1.7 29
00:45 1019 30.09 849 25.07 20.4 68.7 22 -2 28.3
00:50 1019 30.09 849 25.07 20.4 68.8 22 -2 28.4
00:55 1020 30.12 849 25.07 20.3 68.6 22 -2 28.5
01:00 1019 30.09 849 25.07 20.3 68.5 22 -2 28.4
01:05 1019 30.09 849 25.07 20.3 68.5 22 -2 28.5
01:10 1019 30.09 849 25.07 20.2 68.3 22 -2 28.4
01:15 1020 30.12 849 25.07 20.2 68.3 22 -2.1 28.2
01:20 1020 30.12 849 25.07 20.1 68.1 22 -2.2 28.1
01:25 1020 30.12 849 25.07 19.8 67.7 23 -1.7 28.9
01:30 1020 30.12 849 25.07 19.4 67 24 -1.6 29.1
01:35 1020 30.12 849 25.07 18.9 66 24 -1.7 29
01:40 1020 30.12 849 25.07 18.9 66 25 -1.3 29.6
01:45 1020 30.12 849 25.07 18.6 65.4 26 -1.1 30
01:50 1020 30.12 849 25.07 18 64.5 27 -1.1 29.9
01:55 1020 30.12 849 25.07 17.7 63.9 28 -0.7 30.8
02:00 1020 30.12 849 25.07 16.9 62.5 30 -0.6 30.8
02:05 1020 30.12 849 25.07 16.6 61.8 32 -0.3 31.5
02:10 1020 30.12 849 25.07 16.1 61 32 -0.4 31.3
02:15 1020 30.12 849 25.07 16.1 61 31 -1 30.2
02:20 1020 30.12 849 25.07 16.3 61.3 31 -0.8 30.6
02:25 1020 30.12 849 25.07 16.1 60.9 33 0.1 32.2
02:30 1020 30.12 849 25.07 15.8 60.5 32 -0.7 30.8
02:35 1020 30.12 849 25.07 15.7 60.3 32 -0.8 30.5
02:40 1020 30.12 849 25.07 15.7 60.3 32 -0.8 30.6
02:45 1020 30.12 849 25.07 15.5 60 33 -0.4 31.2
02:50 1020 30.12 849 25.07 15.5 59.8 33 -0.7 30.8
02:55 1020 30.12 849 25.07 15.6 60 34 -0.1 31.8
03:00 1020 30.12 849 25.07 15.3 59.5 33 -0.8 30.5
03:05 1020 30.12 849 25.07 15.4 59.6 33 -0.7 30.8
03:10 1020 30.12 849 25.07 15.5 59.9 34 -0.2 31.6
03:15 1020 30.12 849 25.07 15.5 59.8 33 -0.5 31.1
03:20 1020 30.12 849 25.07 15.2 59.3 35 -0.2 31.7
03:25 1020 30.12 849 25.07 14.7 58.5 36 0.1 32.1
03:30 1020 30.12 849 25.07 14.5 58 34 -1 30.2
03:35 1020 30.12 849 25.07 14.7 58.4 34 -0.7 30.7
03:40 1020 30.12 849 25.07 14.9 58.9 38 0.9 33.6
03:45 1020 30.12 849 25.07 14.7 58.5 37 0.3 32.5
03:50 1020 30.12 849 25.07 14.7 58.5 33 -1.2 29.8
03:55 1020 30.12 849 25.07 15.1 59.2 34 -0.4 31.2
04:00 1020 30.12 849 25.07 15 59.1 36 0.2 32.4
04:05 1020 30.12 849 25.07 14.7 58.4 36 0 32.1
04:10 1020 30.12 849 25.07 14.8 58.6 33 -1.2 29.8
04:15 1020 30.12 849 25.07 15.1 59.2 35 -0.2 31.6
04:20 1020 30.12 849 25.07 14.8 58.6 35 -0.4 31.3
04:25 1020 30.12 849 25.07 14.8 58.6 35 -0.6 31
04:30 1020 30.12 849 25.07 14.8 58.6 34 -0.8 30.6
04:35 1020 30.12 849 25.07 14.7 58.5 35 -0.5 31.1
04:40 1020 30.12 849 25.07 14.4 58 35 -0.8 30.6
04:45 1020 30.12 849 25.07 14.3 57.7 35 -0.8 30.6
04:50 1020 30.12 849 25.07 14.3 57.8 35 -0.8 30.6
04:55 1020 30.12 849 25.07 14.4 57.9 36 -0.5 31.1
05:00 1020 30.12 849 25.07 14.2 57.5 36 -0.4 31.2
05:05 1020 30.12 849 25.07 14 57.2 37 -0.4 31.2
05:10 1020 30.12 849 25.07 13.9 56.9 37 -0.4 31.3
05:15 1020 30.12 849 25.07 13.8 56.9 38 -0.3 31.5
05:20 1020 30.12 849 25.07 13.7 56.7 40 0.3 32.5
05:25 1020 30.12 849 25.07 13.7 56.6 39 0.1 32.1
05:30 1020 30.12 849 25.07 14 57.1 40 0.5 32.9
05:35 1020 30.12 849 25.07 13.7 56.6 40 0.5 33
05:40 1020 30.12 849 25.07 13.9 57 38 0.1 32.1
05:45 1020 30.12 849 25.07 14.1 57.4 41 1.1 34
05:50 1020 30.12 849 25.07 13.6 56.6 43 1.3 34.3
05:55 1020 30.12 849 25.07 13.5 56.3 40 0.2 32.4
06:00 1020 30.12 849 25.07 13.4 56.2 40 0.2 32.4
06:05 1020 30.12 849 25.07 13.3 55.9 40 0.1 32.2
06:10 1020 30.12 849 25.07 13.5 56.3 42 1 33.8
06:15 1020 30.12 849 25.07 13.3 55.9 41 0.5 32.9
06:20 1020 30.12 849 25.07 12.8 55 43 0.5 33
06:25 1020 30.12 849 25.07 12.8 55.1 41 -0.2 31.7
06:30 1020 30.12 849 25.07 13.2 55.7 40 0 32
06:35 1020 30.12 849 25.07 13.2 55.8 41 0.3 32.5
06:40 1020 30.12 849 25.07 13 55.4 42 0.5 32.9
06:45 1020 30.12 849 25.07 13.1 55.6 41 0.3 32.5
06:50 1020 30.12 849 25.07 12.9 55.3 42 0.5 32.9
06:55 1020 30.12 849 25.07 12.8 55 43 0.4 32.8
07:00 1020 30.12 850 25.1 12.8 55 43 0.5 32.9
07:05 1020 30.12 850 25.1 12.8 55.1 43 0.6 33.1
07:10 1020 30.12 850 25.1 12.9 55.3 41 0.1 32.2
07:15 1020 30.12 849 25.07 13.3 56 41 0.6 33.1
07:20 1020 30.12 850 25.1 13.5 56.2 40 0.4 32.6
07:25 1020 30.12 850 25.1 13.6 56.4 43 1.4 34.5
07:30 1020 30.12 850 25.1 13.4 56.1 42 0.7 33.3
07:35 1020 30.12 850 25.1 13.4 56 42 0.7 33.3
07:40 1021 30.15 850 25.1 13.6 56.4 42 1 33.9
07:45 1020 30.12 850 25.1 13.7 56.6 42 1 33.9
07:50 1020 30.12 850 25.1 13.8 56.9 43 1.5 34.8
07:55 1021 30.15 850 25.1 14.2 57.5 39 0.5 32.9
08:00 1021 30.15 850 25.1 14.4 58 39 0.7 33.2
08:05 1021 30.15 850 25.1 14.8 58.6 40 1.3 34.3
08:10 1021 30.15 850 25.1 14.9 58.8 42 2.1 35.9
08:15 1021 30.15 850 25.1 15.5 59.9 37 1 33.9
08:20 1021 30.15 850 25.1 15.9 60.6 36 1 33.8
08:25 1021 30.15 850 25.1 16.4 61.4 36 1.3 34.4
08:30 1021 30.15 850 25.1 16.6 61.9 35 1.2 34.2
08:35 1021 30.15 850 25.1 16.3 61.3 37 1.8 35.2
08:40 1021 30.15 850 25.1 16.3 61.4 37 1.8 35.3
08:45 1021 30.15 850 25.1 16.5 61.7 36 1.6 34.9
08:50 1021 30.15 850 25.1 16.9 62.4 34 1.2 34.1
08:55 1021 30.15 850 25.1 17.6 63.7 32 1 33.9
09:00 1021 30.15 850 25.1 18.2 64.8 32 1.4 34.4
09:05 1021 30.15 850 25.1 18.2 64.7 33 2 35.5
09:10 1021 30.15 850 25.1 18.5 65.4 32 1.8 35.2
09:15 1021 30.15 850 25.1 18.8 65.9 33 2.3 36.2
09:20 1021 30.15 850 25.1 19.1 66.4 33 2.5 36.5
09:25 1021 30.15 850 25.1 19.6 67.3 29 1.2 34.1
09:30 1021 30.15 850 25.1 19.6 67.2 31 2.2 35.9
09:35 1021 30.15 850 25.1 19.3 66.7 30 1.5 34.8
09:40 1021 30.15 850 25.1 19.5 67.2 28 0.8 33.5
09:45 1021 30.15 850 25.1 19.8 67.6 30 1.7 35
09:50 1021 30.15 850 25.1 20.2 68.4 29 2 35.6
09:55 1021 30.15 850 25.1 20.8 69.5 30 2.7 36.8
10:00 1021 30.15 850 25.1 21.2 70.2 29 2.5 36.6
10:05 1021 30.15 850 25.1 21.6 70.8 28 2.5 36.5
10:10 1021 30.15 850 25.1 22 71.7 27 2.6 36.6
10:15 1021 30.15 850 25.1 22.7 72.9 27 2.8 37
10:20 1021 30.15 850 25.1 22.4 72.4 27 2.8 37
10:25 1021 30.15 850 25.1 22.7 72.8 27 2.9 37.2
10:30 1021 30.15 850 25.1 22.7 72.9 26 2.2 36
10:35 1021 30.15 850 25.1 23 73.5 25 2.3 36.1
10:40 1021 30.15 850 25.1 23.3 73.9 26 2.7 36.8
10:45 1021 30.15 850 25.1 23.6 74.4 26 3.1 37.7
10:50 1021 30.15 850 25.1 23 73.4 26 2.7 36.8
10:55 1021 30.15 850 25.1 23 73.4 26 2.5 36.6
11:00 1020 30.12 850 25.1 24 75.1 24 2.5 36.6
11:05 1020 30.12 850 25.1 24.5 76.1 23 2.5 36.5
11:10 1020 30.12 850 25.1 24.3 75.8 24 2.5 36.6
11:15 1020 30.12 850 25.1 24.8 76.6 22 2.1 35.9
11:20 1020 30.12 850 25.1 25 76.9 23 2.8 37.1
11:25 1020 30.12 850 25.1 25.2 77.3 23 2.7 36.8
11:30 1020 30.12 850 25.1 25.5 77.9 23 2.9 37.2
11:35 1020 30.12 850 25.1 24.6 76.3 25 3.3 37.9
11:40 1020 30.12 849 25.07 24 75.2 24 2.2 36
11:45 1020 30.12 849 25.07 25.3 77.5 23 2.9 37.2
11:50 1020 30.12 849 25.07 26 78.7 21 2.5 36.4
11:55 1020 30.12 849 25.07 26.1 79 20 1.7 35.1
12:00 1020 30.12 849 25.07 25.2 77.3 22 2.1 35.8
12:05 1020 30.12 849 25.07 25.6 78 21 1.7 35
12:10 1020 30.12 849 25.07 26.1 79.1 22 2.7 36.9
12:15 1020 30.12 849 25.07 26.4 79.5 21 2.7 36.9
12:20 1020 30.12 849 25.07 26 78.9 22 2.9 37.1
12:25 1020 30.12 849 25.07 26.6 79.9 21 2.9 37.3
12:30 1020 30.12 849 25.07 26.6 79.9 20 2.2 35.9
12:35 1020 30.12 849 25.07 27 80.6 21 2.8 37.1
12:40 1020 30.12 849 25.07 26.9 80.4 20 2.3 36.2
12:45 1020 30.12 849 25.07 27 80.6 20 2.5 36.5
12:50 1020 30.12 849 25.07 26.8 80.3 21 2.7 36.8
12:55 1020 30.12 849 25.07 26.8 80.2 20 2.3 36.2
13:00 1020 30.12 849 25.07 26.9 80.4 21 2.7 36.9
13:05 1020 30.12 849 25.07 27.2 80.9 20 2.8 37
13:10 1020 30.12 849 25.07 27.3 81.2 20 2.9 37.1
13:15 1019 30.09 849 25.07 27.5 81.6 20 2.6 36.6
13:20 1019 30.09 849 25.07 27.6 81.7 20 2.8 37
13:25 1019 30.09 849 25.07 27.9 82.2 18 2.1 35.7
13:30 1019 30.09 849 25.07 28.1 82.5 19 2.8 37
13:35 1019 30.09 849 25.07 28.2 82.8 20 3.5 38.3
13:40 1019 30.09 848 25.04 28.5 83.2 19 2.9 37.2
13:45 1019 30.09 848 25.04 28.5 83.4 18 2.1 35.8
13:50 1019 30.09 848 25.04 28.7 83.7 18 2.8 37
13:55 1019 30.09 848 25.04 29 84.2 16 0.8 33.5
14:00 1019 30.09 848 25.04 29 84.2 16 0.9 33.7
14:05 1019 30.09 848 25.04 28.7 83.7 16 0.6 33.1
14:10 1019 30.09 848 25.04 29 84.1 17 2.1 35.8
14:15 1019 30.09 848 25.04 28.8 83.9 17 1.4 34.5
14:20 1019 30.09 848 25.04 28.8 83.8 16 1.1 34
14:25 1019 30.09 848 25.04 29.1 84.3 16 0.9 33.6
14:30 1019 30.09 848 25.04 28.3 83 16 0.3 32.6
14:35 1019 30.09 848 25.04 28.6 83.4 16 0.5 32.9
14:40 1019 30.09 848 25.04 28.6 83.5 16 0.9 33.6
14:45 1019 30.09 848 25.04 28.9 84 16 0.9 33.6
14:50 1019 30.09 848 25.04 29.3 84.8 15 0.4 32.7
14:55 1019 30.09 848 25.04 29.4 84.9 16 0.9 33.6
15:00 1019 30.09 848 25.04 29.4 85 15 0.3 32.5
15:05 1018 30.06 848 25.04 29.6 85.3 15 0.6 33.1
15:10 1018 30.06 848 25.04 30.2 86.4 15 1 33.8
15:15 1018 30.06 848 25.04 30.3 86.5 15 1.1 34
15:20 1018 30.06 847 25.01 30.1 86.2 15 0.7 33.2
15:25 1018 30.06 847 25.01 30 86.1 14 0.4 32.7
15:30 1018 30.06 847 25.01 29.3 84.7 15 0.5 32.9
15:35 1018 30.06 847 25.01 29.3 84.7 15 0.4 32.8
15:40 1018 30.06 847 25.01 29.8 85.7 16 1.3 34.4
15:45 1018 30.06 847 25.01 30.3 86.6 15 0.8 33.5
15:50 1018 30.06 847 25.01 30.2 86.3 15 1.1 34.1
15:55 1018 30.06 847 25.01 30.1 86.2 14 0.4 32.8
16:00 1018 30.06 847 25.01 29.5 85.1 15 0.3 32.5
16:05 1018 30.06 847 25.01 29.9 85.9 15 0.9 33.6
16:10 1018 30.06 847 25.01 30.1 86.2 14 0.4 32.7
16:15 1018 30.06 847 25.01 30.6 87.1 14 0.8 33.5
16:20 1018 30.06 847 25.01 30.5 87 14 0.4 32.7
16:25 1018 30.06 847 25.01 30.4 86.6 14 0.6 33.1
16:30 1017 30.03 847 25.01 30.6 87.1 14 0.5 32.9
16:35 1017 30.03 847 25.01 29.9 85.9 15 0.8 33.4
16:40 1017 30.03 846 24.98 29.7 85.4 15 0.6 33
16:45 1017 30.03 846 24.98 29.9 85.8 15 0.5 32.8
16:50 1017 30.03 846 24.98 30.2 86.3 15 0.6 33.1
16:55 1017 30.03 846 24.98 30.1 86.1 14 0.3 32.5
17:00 1017 30.03 846 24.98 29.9 85.8 14 0 32
17:05 1017 30.03 846 24.98 30.1 86.2 14 0.4 32.8
17:10 1017 30.03 846 24.98 30.2 86.3 15 1 33.7
17:15 1017 30.03 846 24.98 30.1 86.1 15 1.1 34
17:20 1017 30.03 846 24.98 30 86 15 0.9 33.7
17:25 1017 30.03 846 24.98 29.7 85.4 15 0.8 33.5
17:30 1017 30.03 846 24.98 29.5 85 15 0.3 32.6
17:35 1017 30.03 846 24.98 28.7 83.7 15 0.2 32.4
17:40 1017 30.03 846 24.98 28.8 83.9 15 -0 32
17:45 1017 30.03 846 24.98 29.1 84.4 15 0.5 32.8
17:50 1017 30.03 846 24.98 29.3 84.7 16 1 33.8
17:55 1017 30.03 846 24.98 29.7 85.4 15 0.3 32.6
18:00 1017 30.03 846 24.98 29.8 85.6 15 0.4 32.7
18:05 1017 30.03 846 24.98 29.9 85.7 14 -0 32
18:10 1017 30.03 846 24.98 29.9 85.8 14 0.2 32.3
18:15 1017 30.03 846 24.98 29.1 84.4 15 0.2 32.3
18:20 1017 30.03 846 24.98 29 84.2 15 0.3 32.5
18:25 1017 30.03 846 24.98 29.3 84.7 15 0.2 32.4
18:30 1017 30.03 846 24.98 28.9 83.9 15 -0.3 31.4
18:35 1017 30.03 846 24.98 28.4 83 16 0 32
18:40 1017 30.03 846 24.98 28.2 82.7 15 -0.9 30.3
18:45 1017 30.03 846 24.98 28.1 82.6 15 -1 30.3
18:50 1017 30.03 846 24.98 28.1 82.5 15 -0.8 30.6
18:55 1017 30.03 846 24.98 28.1 82.6 16 0.3 32.5
19:00 1017 30.03 846 24.98 28.1 82.6 15 -0.8 30.6
19:05 1017 30.03 846 24.98 28.1 82.6 15 -0.7 30.7
19:10 1017 30.03 846 24.98 28 82.4 15 -0.8 30.6
19:15 1017 30.03 846 24.98 27.8 82.1 15 -0.7 30.8
19:20 1017 30.03 846 24.98 27.8 82 17 0.5 33
19:25 1017 30.03 846 24.98 27.5 81.6 19 1.9 35.4
19:30 1017 30.03 846 24.98 27.2 80.9 19 2 35.6
19:35 1017 30.03 846 24.98 26.9 80.4 20 2.1 35.8
19:40 1017 30.03 846 24.98 26.7 80 20 2 35.7
19:45 1017 30.03 846 24.98 26.3 79.3 21 2.2 35.9
19:50 1017 30.03 846 24.98 26.2 79.2 20 1.9 35.4
19:55 1017 30.03 846 24.98 26.5 79.6 16 -1.3 29.7
20:00 1017 30.03 846 24.98 27 80.6 16 -0.5 31.2
20:05 1017 30.03 846 24.98 26.8 80.2 20 2.2 35.9
20:10 1017 30.03 846 24.98 25.8 78.5 25 4.7 40.5
20:15 1017 30.03 846 24.98 24.5 76.1 27 4.4 40
20:20 1017 30.03 846 24.98 23.9 75 32 6.5 43.7
20:25 1017 30.03 846 24.98 23.5 74.2 31 5.8 42.4
20:30 1017 30.03 846 24.98 22.5 72.5 30 4.1 39.5
20:35 1017 30.03 846 24.98 22.3 72.1 33 5.3 41.5
20:40 1017 30.03 846 24.98 22 71.6 33 5 41
20:45 1017 30.03 846 24.98 21.2 70.2 34 5 40.9
20:50 1017 30.03 846 24.98 20.7 69.2 38 6 42.8
20:55 1017 30.03 846 24.98 20.4 68.7 31 2.9 37.2
21:00 1017 30.03 846 24.98 21.4 70.5 27 1.6 34.9
21:05 1017 30.03 846 24.98 22.5 72.5 26 2.1 35.8
21:10 1017 30.03 846 24.98 22.5 72.4 27 2.8 37.1
21:15 1017 30.03 846 24.98 22 71.5 27 2.4 36.4
21:20 1017 30.03 846 24.98 22 71.6 26 1.6 34.9
21:25 1017 30.03 846 24.98 22.6 72.7 27 2.7 36.9
21:30 1017 30.03 846 24.98 21.6 71 29 2.9 37.3
21:35 1017 30.03 846 24.98 21.2 70.1 30 3.1 37.5
21:40 1017 30.03 846 24.98 20.4 68.8 31 2.7 36.9
21:45 1017 30.03 846 24.98 20.9 69.5 27 1.3 34.3
21:50 1017 30.03 846 24.98 21.9 71.3 26 1.7 35
21:55 1017 30.03 846 24.98 22.2 71.9 26 2.1 35.9
22:00 1017 30.03 846 24.98 21.8 71.3 27 2.1 35.7
22:05 1017 30.03 846 24.98 21.6 71 27 2.1 35.8
22:10 1017 30.03 846 24.98 21.4 70.6 28 2.1 35.8
22:15 1017 30.03 846 24.98 21.3 70.3 27 1.8 35.2
22:20 1017 30.03 846 24.98 21.3 70.3 27 1.9 35.4
22:25 1017 30.03 846 24.98 21.5 70.7 26 1.4 34.6
22:30 1017 30.03 846 24.98 21.5 70.7 27 1.7 35.1
22:35 1017 30.03 846 24.98 20.8 69.4 28 2 35.7
22:40 1017 30.03 846 24.98 20.3 68.6 28 1.5 34.7
22:45 1017 30.03 846 24.98 20.5 68.9 27 1.2 34.2
22:50 1017 30.03 846 24.98 20.6 69.1 27 1 33.8
22:55 1017 30.03 846 24.98 20.7 69.3 28 1.7 35.1
23:00 1017 30.03 846 24.98 20.4 68.7 27 1.1 34
23:05 1017 30.03 846 24.98 20.2 68.4 28 1.1 34
23:10 1017 30.03 846 24.98 20.4 68.8 25 -0.1 31.9
23:15 1017 30.03 846 24.98 20.7 69.2 25 0.3 32.6
23:20 1017 30.03 846 24.98 20.8 69.5 25 0.3 32.6
23:25 1017 30.03 846 24.98 20.7 69.3 26 0.7 33.3
23:30 1016 30 846 24.98 20.6 69 26 0.5 32.9
23:35 1016 30 846 24.98 20.3 68.6 26 0.1 32.3
23:40 1016 30 845 24.95 20.5 68.8 25 0.1 32.2
23:45 1016 30 845 24.95 20.4 68.8 25 0.1 32.2
23:50 1016 30 845 24.95 20.4 68.7 25 -0.1 31.9
23:55 1016 30 845 24.95 20.3 68.5 25 0 32
24:00 1016 30 845 24.95 20.1 68.1 26 -0.1 31.9